LFRG/DOL METAR and TAF weather

Enter ICAO airport designator
Station Type Date Time Source
LFRG METAR 2019/06/26 16:00 UTC NOAA

LFRG 261600Z AUTO 04012KT 350V070 CAVOK 27/21 Q1021 NOSIG


Station Type Date Time Source
LFRG Decoded METAR 2019/06/26 16:00 UTC NOAA

Station name not available
Jun 26, 2019 - 12:00 PM EDT / 2019.06.26 1600 UTC
Wind: from the NE (040 degrees) at 14 MPH (12 KT) (direction variable):0
Visibility: greater than 7 mile(s):0
Temperature: 80 F (27 C)
Dew Point: 69 F (21 C)
Relative Humidity: 69%
Pressure (altimeter): 30.15 in. Hg (1021 hPa)
ob: LFRG 261600Z AUTO 04012KT 350V070 CAVOK 27/21 Q1021 NOSIG
cycle: 16

Station Type Date Time Source
LFRG TAF 2014/12/22 18:42 UTC NOAA

TAF
AMD TAF
AMD LFRG 221837Z 2218/2221 25015KT 9999 OVC015
TEMPO 2218/2221 BKN007 PROB30
TEMPO 2218/2221 25015G25KT 4000 DZ BKN003

Example: see airport list